»·PEaware :: N677JM KIFP-KTRM

N677JM :: KIFP-KTRM

FLIGHT INFORMATION

Flight Status: Arrived
Operator: Privately registered:
United States
More flights under this callsign
Pilot: Jason M. (17974)
Aircraft: CESSNA 172 SKYHAWK
(C172)
More flights by this aircraft type
Origin: KIFP Laughlin/Bullhead Intl
United States
Destination: KTRM Desert Resorts Regl
United States
More flights between these airports :: More routes between these airports
Route: TNP
File this flight plan on PilotEdge
Remarks:
Altitude:
(Current/Filed)
8,500ft
Speed:
(Current/Filed)
115kts
Departed: 07-Jun-18 05:35 PM
Arrived: 07-Jun-18 06:55 PM
Distance/Time
Traveled:
121nm/1:20
Distance/Time
To Go:
Arrived

Flight Plot

Page will automatically refresh every two minutes.


Map Options




Map Legend


Flown Route
Filed Route
Departure Airport
Arrival Airport
Navaid (VOR, NDB)
Fix

Horizontal Profiles

Position Reports

Time Latitude Longitude Heading Altitude Ground
Speed
07-Jun-18 17:23 35.159761 -114.556378 291 679ft 0kts
07-Jun-18 17:24 35.159761 -114.556378 292 679ft 0kts
07-Jun-18 17:25 35.159761 -114.556378 291 679ft 0kts
07-Jun-18 17:26 35.159761 -114.556378 291 679ft 0kts
07-Jun-18 17:27 35.159761 -114.556378 291 679ft 0kts
07-Jun-18 17:28 35.159761 -114.556378 291 679ft 0kts
07-Jun-18 17:29 35.159512 -114.557335 265 671ft 14kts
07-Jun-18 17:30 35.165559 -114.558809 358 641ft 18kts
07-Jun-18 17:31 35.166462 -114.559056 180 637ft 0kts
07-Jun-18 17:32 35.166462 -114.559056 180 637ft 0kts
07-Jun-18 17:33 35.166349 -114.559155 233 636ft 0kts
07-Jun-18 17:34 35.165873 -114.560178 180 627ft 0kts
07-Jun-18 17:35 35.156769 -114.559434 168 938ft 49kts
07-Jun-18 17:36 35.143207 -114.557003 182 1449ft 56kts
07-Jun-18 17:37 35.130447 -114.567111 213 1990ft 61kts
07-Jun-18 17:38 35.115600 -114.570796 210 2547ft 56kts
07-Jun-18 17:39 35.102732 -114.584400 219 3032ft 65kts
07-Jun-18 17:40 35.093985 -114.602056 225 3434ft 57kts
07-Jun-18 17:41 35.083423 -114.618003 213 3796ft 59kts
07-Jun-18 17:42 35.069368 -114.632690 215 4153ft 69kts
07-Jun-18 17:43 35.054816 -114.647524 213 4529ft 69kts
07-Jun-18 17:44 35.039897 -114.662277 208 4902ft 68kts
07-Jun-18 17:45 35.024125 -114.675037 209 5274ft 67kts
07-Jun-18 17:46 35.009205 -114.688927 212 5634ft 67kts
07-Jun-18 17:47 34.994635 -114.703811 218 5961ft 68kts
07-Jun-18 17:48 34.980223 -114.719382 216 6286ft 68kts
07-Jun-18 17:49 34.966038 -114.735305 218 6599ft 68kts
07-Jun-18 17:50 34.951936 -114.751515 219 6917ft 70kts
07-Jun-18 17:51 34.937803 -114.767981 221 7283ft 71kts
07-Jun-18 17:52 34.923676 -114.784644 219 7624ft 72kts
07-Jun-18 17:53 34.909442 -114.801579 219 7979ft 71kts
07-Jun-18 17:54 34.895243 -114.818459 220 8305ft 72kts
07-Jun-18 17:55 34.880021 -114.836489 222 8503ft 87kts
07-Jun-18 17:56 34.862119 -114.858168 223 8501ft 90kts
07-Jun-18 17:57 34.844715 -114.879250 222 8501ft 87kts
07-Jun-18 17:58 34.828124 -114.899247 222 8498ft 86kts
07-Jun-18 17:59 34.810980 -114.919864 221 8500ft 88kts
07-Jun-18 18:00 34.791829 -114.942778 222 8501ft 101kts
07-Jun-18 18:01 34.782435 -114.974373 225 8498ft 103kts
07-Jun-18 18:02 34.760243 -114.996009 222 8497ft 103kts
07-Jun-18 18:03 34.739634 -115.020689 224 8499ft 105kts
07-Jun-18 18:04 34.718725 -115.045741 224 8501ft 105kts
07-Jun-18 18:05 34.698208 -115.070379 224 8498ft 102kts
07-Jun-18 18:06 34.678242 -115.094641 225 8498ft 101kts
07-Jun-18 18:07 34.658108 -115.118633 226 8498ft 101kts
07-Jun-18 18:08 34.638273 -115.142317 225 8488ft 100kts
07-Jun-18 18:09 34.618564 -115.165805 225 8490ft 98kts
07-Jun-18 18:10 34.598311 -115.189981 225 8392ft 105kts
07-Jun-18 18:11 34.577728 -115.214568 226 8396ft 102kts
07-Jun-18 18:12 34.557536 -115.238655 226 8408ft 100kts
07-Jun-18 18:13 34.537637 -115.262344 226 8421ft 99kts
07-Jun-18 18:14 34.517849 -115.285888 227 8433ft 99kts
07-Jun-18 18:15 34.498122 -115.309361 227 8446ft 100kts
07-Jun-18 18:16 34.478203 -115.333053 227 8459ft 100kts
07-Jun-18 18:17 34.458128 -115.356918 226 8471ft 101kts
07-Jun-18 18:18 34.437309 -115.381642 226 8485ft 107kts
07-Jun-18 18:19 34.415490 -115.407539 226 8498ft 111kts
07-Jun-18 18:20 34.393232 -115.433980 226 8512ft 113kts
07-Jun-18 18:21 34.370741 -115.460668 226 8518ft 114kts
07-Jun-18 18:22 34.347971 -115.487665 226 8517ft 114kts
07-Jun-18 18:23 34.325254 -115.514576 226 8517ft 114kts
07-Jun-18 18:24 34.297819 -115.532015 192 8518ft 117kts
07-Jun-18 18:25 34.267524 -115.543678 223 8517ft 114kts
07-Jun-18 18:26 34.243794 -115.569346 224 8517ft 114kts
07-Jun-18 18:27 34.220338 -115.594686 224 8517ft 114kts
07-Jun-18 18:28 34.195795 -115.621138 223 8385ft 118kts
07-Jun-18 18:29 34.172704 -115.645521 222 8558ft 106kts
07-Jun-18 18:30 34.149115 -115.668601 219 8563ft 112kts
07-Jun-18 18:31 34.124946 -115.692757 207 8564ft 115kts
07-Jun-18 18:32 34.097240 -115.712003 215 8567ft 115kts
07-Jun-18 18:33 34.071310 -115.734694 219 8570ft 115kts
07-Jun-18 18:34 34.045643 -115.758725 220 8422ft 123kts
07-Jun-18 18:35 34.018640 -115.784554 220 7970ft 122kts
07-Jun-18 18:36 33.992351 -115.809793 220 7498ft 116kts
07-Jun-18 18:37 33.967388 -115.833778 220 6846ft 116kts
07-Jun-18 18:38 33.940486 -115.855120 195 6217ft 118kts
07-Jun-18 18:39 33.910005 -115.866937 204 5926ft 110kts
07-Jun-18 18:40 33.882467 -115.881398 204 5924ft 106kts
07-Jun-18 18:41 33.855512 -115.895486 204 5922ft 104kts
07-Jun-18 18:42 33.828429 -115.910485 206 5890ft 115kts
07-Jun-18 18:43 33.799032 -115.928195 210 5691ft 120kts
07-Jun-18 18:44 33.770357 -115.947713 210 5287ft 113kts
07-Jun-18 18:45 33.743415 -115.966083 210 4937ft 108kts
07-Jun-18 18:46 33.720655 -115.988252 237 4712ft 110kts
07-Jun-18 18:47 33.703651 -116.019278 237 3911ft 112kts
07-Jun-18 18:48 33.686358 -116.050748 236 3112ft 114kts
07-Jun-18 18:49 33.668944 -116.082408 236 2327ft 118kts
07-Jun-18 18:50 33.651380 -116.114308 236 1557ft 111kts
07-Jun-18 18:51 33.635860 -116.143307 238 1411ft 101kts
07-Jun-18 18:52 33.619854 -116.170360 190 864ft 107kts
07-Jun-18 18:53 33.600892 -116.162969 81 542ft 79kts
07-Jun-18 18:54 33.618098 -116.156441 0 -106ft 59kts
07-Jun-18 18:55 33.629428 -116.156695 324 -111ft 22kts
07-Jun-18 18:56 33.634225 -116.157715 5 -111ft 24kts
07-Jun-18 18:57 33.634250 -116.159081 286 -111ft 20kts
07-Jun-18 18:58 33.635460 -116.162041 301 -111ft 0kts
07-Jun-18 18:59 33.635459 -116.162041 302 -111ft 0kts
07-Jun-18 19:00 33.635459 -116.162041 302 -111ft 0kts
07-Jun-18 19:01 33.635459 -116.162041 302 -111ft 0kts
07-Jun-18 19:02 33.635459 -116.162041 302 -111ft 0kts
07-Jun-18 19:03 33.635459 -116.162041 302 -111ft 0kts

Navigation Log

Ident Type
1. KIFP Airport
2. TNP Navaid
3. KTRM Airport